Date,TemperatureHighF,TemperatureAvgF,TemperatureLowF,DewpointHighF,DewpointAvgF,DewpointLowF,HumidityHigh,HumidityAvg,HumidityLow,PressureMaxIn,PressureMinIn,WindSpeedMaxMPH,WindSpeedAvgMPH,GustSpeedMaxMPH,PrecipitationSumIn
2013-1-1,31,24,13,30,22,10,96,90,79,30.20,30.06,9,1,9,0.00
2013-1-2,20,12,2,11,6,-1,92,78,54,30.31,30.18,7,1,7,0.00
2013-1-3,30,22,12,25,15,4,85,75,58,30.33,30.24,15,5,17,0.00
2013-1-4,29,23,17,22,17,13,87,78,68,30.35,30.30,21,7,21,0.00
2013-1-5,37,28,20,31,24,17,94,85,67,30.36,30.13,18,5,18,0.00
2013-1-6,35,30,24,32,26,19,91,86,82,30.37,30.02,24,6,24,0.00
2013-1-7,34,25,14,26,21,12,95,85,71,30.47,30.24,18,3,19,0.00
2013-1-8,43,33,24,32,27,21,89,78,62,30.30,30.21,12,4,12,0.00
2013-1-9,42,40,36,35,33,30,81,77,74,30.21,30.17,17,6,17,0.00
2013-1-10,45,38,28,41,33,26,94,83,72,30.52,30.06,17,8,17,0.10
2013-1-11,58,51,45,53,48,40,97,89,76,30.06,29.82,21,8,21,0.63
2013-1-12,62,55,50,56,52,47,99,90,78,29.97,29.69,15,5,19,0.96
2013-1-13,56,38,22,56,37,19,99,96,86,30.20,29.63,19,4,20,1.20
2013-1-14,22,20,17,20,16,13,90,86,81,30.49,30.20,15,4,16,0.00
2013-1-15,29,24,19,23,20,16,91,82,71,30.44,30.13,15,5,15,0.00
2013-1-16,34,28,23,24,23,20,93,80,57,30.13,29.97,15,4,15,0.00
2013-1-17,37,30,21,30,24,15,88,77,62,30.43,30.10,16,3,16,0.00
2013-1-18,37,28,19,26,20,15,87,72,54,30.51,30.14,26,7,28,0.00
2013-1-19,53,44,36,37,31,25,71,61,49,30.15,29.85,32,11,32,0.00
2013-1-20,45,26,21,37,16,10,75,65,56,30.26,29.87,31,7,31,0.00
2013-1-21,21,14,7,13,6,-3,84,70,58,30.30,30.14,24,7,25,0.00
2013-1-22,14,8,2,2,-1,-3,78,66,52,30.45,30.29,19,5,19,0.00
2013-1-23,21,15,7,14,6,0,79,67,51,30.40,30.15,21,3,23,0.00
2013-1-24,21,16,10,13,8,4,86,72,50,30.64,30.19,19,5,19,0.00
2013-1-25,25,21,17,19,15,8,89,77,61,30.47,30.06,15,4,15,0.00
2013-1-26,28,20,13,18,15,9,91,79,66,30.48,30.12,11,2,11,0.00
2013-1-27,37,26,15,36,22,12,95,82,72,30.46,30.10,19,5,19,0.16
2013-1-28,51,46,37,50,45,36,99,96,93,30.12,29.96,23,8,24,0.06
2013-1-29,63,56,50,59,54,49,99,93,86,29.99,29.41,28,11,28,0.00
2013-1-30,65,47,27,60,44,24,98,91,82,29.56,29.21,42,9,42,0.84
2013-1-31,27,21,10,24,15,2,92,80,70,30.11,29.56,31,11,31,0.00
2013-2-1,15,9,4,8,2,-3,83,74,66,30.44,30.12,24,8,24,0.00
2013-2-2,26,21,14,23,18,8,93,86,76,30.33,30.02,19,6,20,0.00
2013-2-3,22,17,11,18,13,7,90,84,79,30.13,29.98,17,4,17,0.00
2013-2-4,35,26,17,31,22,14,92,82,70,30.12,29.83,21,4,21,0.00
2013-2-5,34,27,18,31,24,17,94,88,79,30.05,29.84,17,3,19,0.00
2013-2-6,36,31,28,29,24,21,89,77,63,30.28,30.05,12,2,15,0.00
2013-2-7,52,40,30,41,33,26,95,77,55,30.21,29.80,12,4,12,0.21
2013-2-8,42,33,26,41,29,22,96,86,76,30.37,29.81,21,6,21,0.06
2013-2-9,37,28,19,27,23,18,95,80,63,30.44,30.21,13,2,13,0.00
2013-2-10,50,42,31,47,34,24,95,75,62,30.21,29.70,27,8,27,0.02
2013-2-11,50,39,30,48,32,25,93,76,62,30.04,29.67,37,10,37,0.00
2013-2-12,43,32,28,32,27,23,92,80,60,30.14,29.96,15,3,15,0.00
2013-2-13,41,29,25,29,25,23,92,87,62,29.96,29.80,15,3,15,0.00
2013-2-14,35,34,32,30,30,29,91,86,79,29.86,29.85,17,7,17,0.00
2013-2-15,34,30,20,30,25,17,92,84,70,30.18,29.98,17,6,17,0.00
2013-2-16,23,20,16,20,12,7,91,72,57,30.17,30.10,18,5,18,0.00
2013-2-17,29,20,9,15,11,6,90,71,46,30.28,30.16,12,2,12,0.00
2013-2-18,55,40,24,42,29,13,92,64,53,30.20,29.60,35,10,35,0.02
2013-2-19,45,26,20,42,21,12,95,82,69,30.14,29.56,34,11,34,0.00
2013-2-20,23,17,10,14,11,5,84,75,66,30.37,30.14,20,5,20,0.00
2013-2-21,27,23,18,23,18,14,90,81,74,30.39,30.07,21,6,22,0.00
2013-2-22,35,32,26,34,30,23,97,92,84,30.11,29.88,22,6,25,0.09
2013-2-23,33,29,24,28,24,21,91,81,71,30.01,29.94,16,4,16,0.00
2013-2-24,37,29,22,26,23,18,89,78,61,30.17,29.99,12,3,15,0.00
2013-2-25,43,33,23,30,26,20,90,76,58,30.20,29.93,16,4,16,0.00
2013-2-26,41,35,32,40,32,26,98,86,75,29.93,29.41,24,9,25,1.01
2013-2-27,41,34,30,40,33,29,97,94,88,29.68,29.47,20,8,20,0.03
2013-2-28,37,33,30,33,31,29,97,92,83,29.99,29.66,15,5,16,0.03
2013-3-1,32,30,27,30,28,22,97,90,79,30.10,29.96,12,4,12,0.00
2013-3-2,30,27,24,24,20,19,86,77,67,30.12,30.08,15,5,15,0.00
2013-3-3,30,26,22,23,21,18,90,83,70,30.12,30.08,12,3,13,0.00
2013-3-4,37,28,16,29,22,14,94,79,59,30.18,30.02,12,3,12,0.01
2013-3-5,35,32,27,31,30,26,96,91,84,30.04,29.66,19,6,19,0.03
2013-3-6,33,30,26,29,27,24,96,89,81,30.28,29.75,17,5,17,0.03
2013-3-7,38,32,28,30,28,24,94,85,65,30.42,30.27,9,2,10,0.06
2013-3-8,39,31,22,27,24,20,92,77,58,30.51,30.41,10,2,10,0.00
2013-3-9,52,39,29,38,32,24,85,74,56,30.41,29.98,17,5,17,0.00
2013-3-10,64,56,50,43,39,36,64,54,42,29.98,29.73,27,9,28,0.01
2013-3-11,58,46,33,51,42,30,96,86,54,29.83,29.56,30,8,30,0.23
2013-3-12,41,34,30,31,28,25,94,82,60,30.03,29.83,21,7,23,0.00
2013-3-13,32,30,28,29,27,24,91,87,83,30.03,30.02,13,5,16,0.00
2013-3-14,41,30,21,28,21,17,89,70,42,30.37,30.19,14,7,14,0.00
2013-3-15,47,38,30,40,34,28,95,85,69,30.17,29.81,14,8,14,0.00
2013-3-16,44,37,32,40,35,30,97,92,85,30.07,29.61,16,8,16,0.00
2013-3-17,36,32,28,30,26,22,91,79,70,30.19,30.02,20,8,20,0.00
2013-3-18,41,35,31,40,33,27,97,93,82,30.02,29.57,21,6,21,0.05
2013-3-19,38,30,24,32,20,15,87,67,49,30.11,29.82,32,10,32,0.00
2013-3-20,31,26,21,21,16,10,77,66,51,30.10,30.01,23,7,23,0.00
2013-3-21,32,23,12,18,14,8,90,70,51,30.06,29.99,17,3,17,0.00
2013-3-22,41,29,17,22,18,14,93,66,43,30.09,30.01,14,2,14,0.00
2013-3-23,45,35,27,27,24,19,85,65,42,30.10,29.93,14,3,14,0.00
2013-3-24,34,30,27,30,27,25,96,87,75,29.95,29.49,29,8,29,0.02
2013-3-25,33,30,27,32,29,26,96,94,87,30.00,29.51,19,6,19,0.13
2013-3-26,38,33,30,31,29,27,94,85,68,30.25,30.00,14,4,16,0.00
2013-3-27,41,33,25,30,26,22,92,75,55,30.33,30.25,14,3,15,0.00
2013-3-28,45,35,26,31,27,24,90,72,53,30.38,30.31,11,2,11,0.00
2013-3-29,52,39,26,36,30,24,94,72,48,30.34,30.23,10,2,11,0.00
2013-3-30,56,43,27,37,32,26,95,68,44,30.25,29.93,16,3,16,0.00
2013-3-31,58,49,42,44,41,36,94,75,52,29.93,29.73,22,5,22,0.10
2013-4-1,46,38,29,38,25,18,80,61,41,30.16,29.81,20,5,20,0.00
2013-4-2,43,32,24,22,19,15,87,61,34,30.30,30.16,18,3,18,0.00
2013-4-3,46,34,21,23,19,12,84,55,36,30.46,30.30,18,2,18,0.00
2013-4-4,58,42,30,26,21,19,67,47,24,30.37,30.00,12,2,12,0.00
2013-4-5,55,44,34,34,27,20,70,52,34,30.17,29.98,16,3,17,0.00
2013-4-6,65,51,36,41,32,25,66,49,35,30.17,29.80,25,8,27,0.00
2013-4-7,70,62,53,47,43,39,64,50,34,29.94,29.75,32,8,32,0.00
2013-4-8,72,62,53,59,53,41,91,73,60,29.95,29.79,28,7,28,0.00
2013-4-9,80,68,54,62,57,51,91,70,45,29.98,29.83,32,6,33,0.00
2013-4-10,79,68,53,68,62,52,98,81,64,29.88,29.72,30,8,30,1.10
2013-4-11,67,60,52,62,58,50,98,93,82,29.75,29.50,20,6,21,1.04
2013-4-12,52,41,36,50,36,30,97,80,65,29.91,29.53,21,8,22,0.06
2013-4-13,45,41,38,36,34,32,88,77,62,30.02,29.91,24,7,24,0.00
2013-4-14,69,53,39,51,42,34,87,68,45,30.04,29.82,17,4,17,0.00
2013-4-15,68,61,53,57,52,46,83,73,58,29.94,29.83,19,7,20,0.00
2013-4-16,63,54,49,55,50,47,97,89,76,30.19,29.85,18,4,18,1.20
2013-4-17,72,57,47,67,54,44,95,89,77,30.21,29.88,20,5,21,0.24
2013-4-18,75,65,56,66,61,55,98,89,69,29.90,29.55,37,8,37,0.85
2013-4-19,60,40,36,59,36,30,98,85,69,29.95,29.49,28,9,31,0.64
2013-4-20,44,38,32,34,29,25,90,72,50,30.44,29.95,20,5,20,0.00
2013-4-21,52,41,30,33,28,22,77,60,42,30.56,30.39,14,4,17,0.00
2013-4-22,67,52,34,42,35,30,88,57,33,30.39,30.11,14,3,14,0.00
2013-4-23,66,58,52,57,49,40,95,72,56,30.11,29.76,24,5,24,0.27
2013-4-24,58,43,36,55,39,33,97,88,69,30.21,29.74,20,5,23,1.11
2013-4-25,51,43,36,41,33,26,86,69,41,30.39,30.20,27,6,30,0.00
2013-4-26,61,48,32,41,36,30,92,65,43,30.45,30.33,12,3,12,0.00
2013-4-27,66,55,44,51,42,33,87,62,41,30.35,30.01,22,4,22,0.02
2013-4-28,60,56,53,58,55,50,99,94,84,30.01,29.81,10,3,10,0.53
2013-4-29,67,60,55,57,55,52,99,85,67,29.98,29.86,15,4,15,0.01
2013-4-30,78,66,53,63,56,50,90,73,56,30.02,29.91,17,5,17,0.00
2013-5-1,82,71,54,61,56,51,89,62,41,30.12,30.02,14,3,15,0.00
2013-5-2,74,68,60,59,56,54,84,66,53,30.16,30.04,16,4,17,0.00
2013-5-3,75,68,61,61,56,42,82,68,42,30.05,29.89,20,6,22,0.00
2013-5-4,70,63,57,53,46,42,85,56,39,29.98,29.91,18,6,20,0.00
2013-5-5,62,57,53,53,51,47,97,81,59,29.97,29.91,17,3,17,0.01
2013-5-6,68,60,53,57,53,49,90,78,65,29.96,29.90,17,4,17,0.00
2013-5-7,73,64,53,58,56,52,97,76,57,29.98,29.91,14,3,15,0.00
2013-5-8,78,66,52,61,56,52,98,75,43,29.99,29.92,14,2,14,0.00
2013-5-9,78,64,54,61,57,52,98,79,41,29.98,29.87,19,3,26,0.70
2013-5-10,68,61,48,63,58,45,98,90,74,29.88,29.77,16,5,17,0.08
2013-5-11,59,48,43,54,45,36,97,88,74,30.02,29.84,21,4,25,0.00
2013-5-12,54,45,36,38,34,28,95,68,39,30.13,30.02,20,3,20,0.00
2013-5-13,62,49,36,40,33,26,91,58,28,30.19,30.10,16,2,17,0.00
2013-5-14,84,66,49,63,50,35,66,56,45,30.11,29.76,25,8,26,0.00
2013-5-15,86,77,70,66,61,56,82,58,43,29.81,29.74,27,8,27,0.00
2013-5-16,80,72,64,66,63,57,96,75,53,29.93,29.78,13,2,14,0.02
2013-5-17,81,67,60,67,63,59,99,88,57,30.02,29.93,16,2,18,0.50
2013-5-18,78,69,62,67,64,61,98,86,66,30.05,29.94,11,2,12,0.00
2013-5-19,84,73,61,70,66,60,99,80,57,29.95,29.82,12,2,12,0.00
2013-5-20,85,77,71,72,69,66,96,78,59,29.90,29.78,21,6,21,0.00
2013-5-21,84,74,63,68,65,61,96,75,53,29.85,29.71,29,7,29,0.03
2013-5-22,75,68,61,65,63,60,97,86,67,29.75,29.66,22,6,22,0.43
2013-5-23,65,58,49,61,55,47,98,90,79,30.13,29.74,20,4,21,0.06
2013-5-24,64,52,44,47,43,38,100,75,40,30.35,30.13,15,3,15,0.00
2013-5-25,64,54,42,49,43,36,93,70,40,30.39,30.22,9,1,9,0.00
2013-5-26,69,60,44,53,47,40,92,64,47,30.30,30.16,11,2,12,0.01
2013-5-27,77,63,53,66,58,51,98,85,67,30.19,29.88,23,4,25,1.06
2013-5-28,80,72,64,70,66,62,98,81,65,29.93,29.85,24,7,27,0.00
2013-5-29,84,77,70,67,64,61,76,65,51,29.98,29.89,21,7,21,0.00
2013-5-30,87,77,69,74,67,63,86,73,54,30.03,29.91,24,6,28,0.14
2013-5-31,76,72,67,71,68,65,98,87,79,29.97,29.83,20,7,20,0.27
2013-6-1,75,70,64,70,66,63,98,87,76,29.86,29.72,22,6,22,0.81
2013-6-2,70,64,56,64,60,52,91,85,72,29.97,29.75,17,5,19,0.03
2013-6-3,67,56,44,52,48,42,95,76,44,30.08,29.96,13,2,13,0.00
2013-6-4,75,61,44,54,48,43,98,67,36,30.16,30.05,13,2,13,0.00
2013-6-5,81,68,54,59,52,48,80,59,38,30.08,29.84,14,2,16,0.00
2013-6-6,75,65,58,63,56,50,85,74,62,29.87,29.76,9,2,9,0.00
2013-6-7,74,65,57,60,57,55,95,77,58,29.87,29.80,13,2,13,0.00
2013-6-8,78,67,56,62,57,53,94,72,50,30.00,29.86,12,2,12,0.00
2013-6-9,82,72,63,68,62,58,93,75,48,30.00,29.82,15,3,15,0.01
2013-6-10,76,69,64,67,64,62,99,85,66,29.82,29.74,17,5,17,0.21
2013-6-11,84,71,61,70,65,61,99,84,50,29.93,29.82,14,2,14,0.05
2013-6-12,90,80,68,76,72,67,97,79,60,29.87,29.61,26,4,26,0.00
2013-6-13,79,68,60,69,60,54,99,76,53,29.94,29.57,23,6,26,1.54
2013-6-14,79,67,56,65,59,54,97,79,53,30.05,29.92,9,1,9,0.00
2013-6-15,81,70,58,68,62,57,98,78,55,30.08,29.91,14,2,14,0.00
2013-6-16,79,72,65,70,67,63,95,84,73,29.94,29.87,21,4,22,0.06
2013-6-17,87,75,67,73,68,63,99,81,48,29.93,29.83,9,1,9,0.00
2013-6-18,80,73,64,69,65,60,96,77,59,29.98,29.83,14,3,14,0.00
2013-6-19,81,70,58,63,58,56,94,69,46,30.09,29.98,9,2,10,0.00
2013-6-20,86,73,60,66,61,56,91,67,40,30.16,30.09,9,2,9,0.00
2013-6-21,87,77,65,67,63,59,82,65,43,30.16,30.00,13,3,14,0.00
2013-6-22,88,76,69,74,69,64,97,81,56,30.09,29.99,14,3,18,0.64
2013-6-23,86,74,65,74,69,64,99,86,58,30.08,29.98,27,4,27,0.01
2013-6-24,86,76,69,72,69,64,97,81,59,30.08,29.95,18,3,18,0.01
2013-6-25,88,79,70,76,72,66,96,80,58,29.97,29.81,19,5,19,0.03
2013-6-26,84,74,67,76,70,66,97,86,72,29.88,29.69,18,4,18,0.26
2013-6-27,84,75,68,74,70,67,99,86,67,29.74,29.64,16,3,16,0.00
2013-6-28,82,73,64,70,66,61,98,80,55,29.65,29.55,17,3,18,0.25
2013-6-29,73,65,61,66,64,61,99,95,78,29.65,29.54,9,1,11,0.38
2013-6-30,73,67,62,68,64,61,99,91,78,29.86,29.65,15,3,18,0.18
2013-7-1,69,66,62,65,62,59,94,88,82,29.94,29.83,15,5,16,0.01
2013-7-2,77,66,60,70,64,59,98,93,78,29.99,29.92,12,2,12,1.18
2013-7-3,80,70,61,69,66,61,99,86,65,30.07,29.98,16,3,16,0.01
2013-7-4,79,69,62,70,66,62,99,91,72,30.11,30.03,7,0,7,0.03
2013-7-5,81,72,65,71,68,64,99,88,69,30.11,30.02,11,1,11,0.00
2013-7-6,74,70,66,70,68,64,99,94,83,30.08,29.99,11,1,11,0.02
2013-7-7,82,72,65,73,68,64,99,88,65,30.07,29.98,11,3,11,0.00
2013-7-8,85,78,70,76,72,68,94,82,71,30.06,29.96,14,4,14,0.00
2013-7-9,88,80,74,78,74,71,92,82,70,30.00,29.90,15,4,16,0.00
2013-7-10,86,78,68,79,73,64,96,85,70,29.92,29.77,35,4,35,0.06
2013-7-11,77,69,59,64,61,57,96,76,57,30.02,29.92,15,3,15,0.00
2013-7-12,78,68,55,65,60,54,99,79,56,30.10,30.01,15,2,15,0.00
2013-7-13,83,71,58,70,64,57,98,81,60,30.12,30.06,11,2,13,0.00
2013-7-14,89,77,65,79,70,63,96,81,60,30.17,30.11,10,1,10,0.00
2013-7-15,89,80,72,75,73,70,97,80,61,30.25,30.17,12,2,12,0.00
2013-7-16,92,80,68,79,74,68,99,82,56,30.30,30.22,5,0,6,0.00
2013-7-17,91,80,70,77,74,70,100,82,58,30.30,30.15,6,1,6,0.00
2013-7-18,92,80,69,80,74,69,99,83,58,30.17,29.97,7,1,8,0.00
2013-7-19,90,82,72,78,74,71,97,80,59,29.99,29.80,16,4,16,0.00
2013-7-20,80,74,68,74,71,67,98,89,82,29.88,29.77,13,3,13,0.15
2013-7-21,85,74,65,75,70,64,99,88,67,29.94,29.84,6,1,6,0.00
2013-7-22,74,71,68,71,69,67,98,95,87,29.87,29.80,8,1,11,0.17
2013-7-23,84,75,63,74,69,58,99,83,64,29.84,29.71,17,9,17,0.00
2013-7-24,72,62,54,60,56,52,95,80,62,30.00,29.84,14,7,14,0.00
2013-7-25,76,63,49,61,55,49,98,78,51,30.09,30.01,10,3,10,0.00
2013-7-26,78,67,53,63,59,52,98,77,55,30.08,29.92,13,5,13,0.00
2013-7-27,75,68,57,66,61,52,98,78,56,29.92,29.80,20,11,20,0.01
2013-7-28,71,62,50,55,53,48,93,73,53,30.02,29.90,23,4,23,0.00
2013-7-29,76,64,52,61,56,50,97,76,53,30.16,30.02,13,2,13,0.00
2013-7-30,78,67,55,66,61,54,97,82,59,30.19,30.08,7,1,7,0.00
2013-7-31,74,68,64,71,66,63,98,95,86,30.08,29.91,7,1,8,0.32
2013-8-1,79,70,59,69,63,57,99,80,52,29.97,29.90,16,2,17,0.32
2013-8-2,82,69,54,68,61,53,98,78,58,29.96,29.89,19,4,20,0.00
2013-8-3,80,69,61,70,66,56,99,89,62,30.04,29.89,10,1,11,0.84
2013-8-4,75,67,58,63,59,56,96,77,56,30.15,30.04,9,1,9,0.84
2013-8-5,70,60,58,64,59,57,99,96,74,30.10,29.93,6,0,6,0.21
2013-8-6,80,71,61,72,67,60,97,89,76,29.94,29.87,7,1,7,0.22
2013-8-7,72,70,68,72,70,67,99,98,96,29.89,29.84,8,1,8,0.00
2013-8-8,76,71,68,73,70,67,99,96,90,29.92,29.86,6,1,8,1.16
2013-8-9,81,71,68,69,68,66,98,89,67,30.00,29.88,6,1,6,0.02
2013-8-10,82,79,78,70,69,67,75,70,61,30.07,30.04,7,2,8,0.02
2013-8-11,82,73,65,71,67,64,98,83,62,30.08,30.01,8,1,8,0.00
2013-8-12,78,67,61,71,65,61,99,92,76,30.06,29.84,4,0,5,0.00
2013-8-13,72,66,55,67,59,50,98,81,53,30.07,29.83,14,2,14,0.00
2013-8-14,69,57,44,58,50,43,98,80,55,30.19,30.07,13,1,14,0.00
2013-8-15,74,59,44,58,52,44,99,79,51,30.18,30.09,6,0,6,0.00
2013-8-16,73,62,52,64,56,52,98,82,56,30.16,30.11,9,1,10,0.00
2013-8-17,79,66,54,62,58,53,97,79,52,30.19,30.11,9,1,11,0.00
2013-8-18,82,64,56,68,60,55,98,89,49,30.17,30.07,7,1,7,0.00
2013-8-19,81,64,56,66,60,55,99,88,55,30.12,30.08,6,0,6,0.00
2013-8-20,86,76,58,71,66,58,99,73,51,30.14,30.05,7,1,8,0.00
2013-8-21,87,75,64,74,68,63,97,81,54,30.11,30.00,10,1,10,0.00
2013-8-22,80,71,65,75,69,64,98,91,76,30.06,29.97,10,1,11,0.14
2013-8-23,82,69,61,71,65,59,99,89,60,30.13,30.03,8,1,8,0.01
2013-8-24,84,69,54,67,60,53,98,75,39,30.25,30.13,9,1,9,0.01
2013-8-25,88,65,58,64,60,57,98,87,45,30.26,30.18,5,0,5,0.00
2013-8-26,87,77,62,75,70,59,96,79,57,30.19,30.03,12,2,12,0.00
2013-8-27,90,79,70,78,72,69,98,81,54,30.05,29.90,12,3,15,0.00
2013-8-28,89,80,74,77,73,70,95,80,66,29.94,29.86,18,3,20,0.00
2013-8-29,86,75,68,75,70,67,99,87,62,30.02,29.94,10,1,10,0.00
2013-8-30,91,76,63,74,69,62,99,81,53,29.96,29.77,13,2,14,0.00
2013-8-31,87,74,67,74,70,66,97,86,58,29.82,29.72,11,2,11,0.47
2013-9-1,83,73,66,75,70,65,98,90,73,29.78,29.72,9,2,10,0.00
2013-9-2,81,71,64,71,68,60,99,92,55,29.89,29.71,14,2,14,0.01
2013-9-3,74,63,49,60,56,48,98,79,59,30.04,29.90,12,2,14,0.00
2013-9-4,80,64,50,66,57,49,99,81,49,30.14,30.03,11,1,11,0.00
2013-9-5,82,68,55,68,61,54,99,82,58,30.18,30.10,10,1,10,0.00
2013-9-6,81,65,51,65,58,48,92,79,58,30.21,30.07,1,0,2,0.00
2013-9-7,86,78,68,70,67,65,95,70,52,29.99,29.90,14,2,14,0.01
2013-9-8,86,74,68,71,68,66,96,81,60,29.95,29.90,9,2,9,0.01
2013-9-9,91,81,66,74,71,64,97,73,53,29.97,29.87,17,4,17,0.01
2013-9-10,85,78,74,76,73,70,94,84,71,30.05,29.94,11,3,12,0.00
2013-9-11,90,77,70,73,68,65,96,76,46,30.08,29.95,11,2,11,0.00
2013-9-12,81,72,62,70,64,53,98,78,49,29.96,29.82,14,2,17,0.92
2013-9-13,65,57,47,55,48,44,94,74,50,30.10,29.94,14,2,16,0.00
2013-9-14,72,55,39,52,43,38,97,69,32,30.20,30.08,9,1,10,0.00
2013-9-15,76,60,47,57,49,43,95,72,39,30.13,29.99,15,2,15,0.07
2013-9-16,62,58,50,56,54,48,98,88,72,30.28,30.08,12,2,13,0.06
2013-9-17,73,60,47,56,51,45,96,76,50,30.33,30.15,13,2,13,0.00
2013-9-18,81,68,57,66,59,52,91,74,50,30.15,29.99,10,1,10,0.00
2013-9-19,81,71,65,72,68,64,99,91,73,30.03,29.88,13,3,14,1.73
2013-9-20,79,71,66,71,69,65,98,93,76,29.92,29.76,12,3,13,0.40
2013-9-21,69,61,48,65,54,46,98,80,52,29.89,29.73,15,2,17,0.19
2013-9-22,67,54,43,52,47,42,99,79,45,30.02,29.89,12,1,12,0.00
2013-9-23,70,56,43,51,47,42,96,75,47,30.12,30.02,11,2,11,0.00
2013-9-24,73,58,43,54,48,42,96,73,48,30.08,29.91,12,2,16,0.00
2013-9-25,76,61,50,56,50,47,94,71,40,29.93,29.86,14,2,15,0.00
2013-9-26,79,61,46,58,52,45,98,77,45,30.07,29.93,11,1,12,0.00
2013-9-27,80,62,48,57,50,46,95,70,34,30.16,30.07,8,1,8,0.00
2013-9-28,82,65,48,59,54,47,97,71,43,30.15,30.00,15,2,15,0.00
2013-9-29,64,62,58,63,59,56,98,93,81,30.01,29.95,10,2,11,0.68
2013-9-30,74,63,56,64,59,55,99,89,60,30.00,29.91,14,2,17,0.01
2013-10-1,75,65,59,65,62,59,99,89,68,30.04,29.97,14,3,15,0.01
2013-10-2,80,68,62,70,65,61,99,90,69,30.08,29.99,8,1,8,0.00
2013-10-3,79,71,64,69,66,63,98,86,66,30.02,29.92,16,3,17,0.00
2013-10-4,82,72,66,71,68,65,97,86,66,30.01,29.95,15,3,15,0.01
2013-10-5,71,69,67,69,68,66,98,95,92,29.99,29.96,11,2,11,0.56
2013-10-6,66,56,48,65,53,41,98,90,72,29.86,29.70,16,5,20,1.40
2013-10-7,61,50,44,49,45,41,97,85,61,30.15,29.79,18,3,18,0.04
2013-10-8,71,56,43,53,47,42,98,76,43,30.26,30.15,11,1,11,0.01
2013-10-9,75,56,42,52,47,41,97,75,40,30.25,30.14,12,1,12,0.00
2013-10-10,74,57,41,55,47,40,98,73,38,30.19,30.07,8,0,8,0.00
2013-10-11,80,59,42,57,49,41,98,74,38,30.11,30.00,9,1,10,0.00
2013-10-12,78,64,48,59,54,47,98,76,44,30.10,30.01,13,1,13,0.00
2013-10-13,70,61,49,62,49,41,91,67,35,30.33,30.10,11,2,12,0.00
2013-10-14,68,53,37,51,44,36,97,75,43,30.36,30.19,10,1,11,0.00
2013-10-15,67,58,48,62,55,46,97,91,79,30.20,29.89,16,3,16,0.04
2013-10-16,63,55,41,62,49,39,96,80,58,29.96,29.85,18,4,18,0.00
2013-10-17,51,44,37,48,42,36,98,93,79,29.96,29.88,16,2,16,0.12
2013-10-18,64,51,41,49,44,39,94,79,46,29.99,29.90,22,5,22,0.00
2013-10-19,52,44,39,42,39,35,97,83,57,29.97,29.86,20,3,20,0.27
2013-10-20,63,50,40,45,40,36,86,70,49,29.98,29.91,23,6,24,0.00
2013-10-21,60,50,39,48,43,30,91,77,64,29.98,29.87,17,5,18,0.00
2013-10-22,50,38,30,37,31,26,95,76,44,30.04,29.87,13,2,13,0.06
2013-10-23,46,39,32,38,33,28,97,82,54,30.05,29.84,17,4,17,0.27
2013-10-24,42,37,31,34,31,26,88,80,62,30.29,30.04,14,4,14,0.00
2013-10-25,47,36,27,32,27,24,90,70,43,30.45,30.25,17,3,17,0.00
2013-10-26,52,42,34,40,32,26,88,68,59,30.25,29.92,26,6,26,0.00
2013-10-27,55,40,28,37,33,27,97,77,46,30.12,30.05,12,2,12,0.00
2013-10-28,61,42,27,42,33,26,98,73,38,30.33,30.09,8,1,8,0.00
2013-10-29,58,46,34,45,39,33,97,79,55,30.37,30.20,7,1,7,0.00
2013-10-30,64,56,49,63,54,45,98,95,82,30.20,29.94,15,2,15,0.10
2013-10-31,64,61,56,63,60,54,98,96,91,29.94,29.23,26,8,34,0.86
2013-11-1,55,50,45,54,46,41,96,85,73,29.75,29.35,22,6,22,0.00
2013-11-2,53,46,42,44,41,38,94,85,62,30.11,29.74,20,4,20,0.00
2013-11-3,52,42,32,42,38,31,97,84,59,30.35,30.11,8,1,9,0.00
2013-11-4,54,47,38,43,39,35,89,74,56,30.37,30.27,16,3,16,0.00
2013-11-5,57,52,48,48,44,42,89,74,64,30.37,30.14,15,3,15,0.00
2013-11-6,59,52,41,54,45,39,95,78,63,30.14,29.89,22,7,23,0.08
2013-11-7,47,40,32,40,33,27,93,76,47,30.28,30.08,19,4,19,0.00
2013-11-8,50,38,28,34,30,27,94,76,50,30.38,30.18,12,2,12,0.00
2013-11-9,60,50,41,42,36,28,72,60,51,30.19,29.97,18,8,25,0.00
2013-11-10,47,40,31,39,32,28,90,75,58,30.34,30.08,16,4,17,0.00
2013-11-11,50,40,28,40,33,26,95,77,56,30.36,30.08,20,6,20,0.04
2013-11-12,33,28,22,26,23,18,94,81,66,30.66,30.36,14,4,14,0.00
2013-11-13,38,28,19,21,18,16,92,69,42,30.65,30.36,19,5,19,0.00
2013-11-14,53,40,29,24,22,18,71,51,27,30.36,30.10,22,9,22,0.00
2013-11-15,50,44,39,40,28,21,88,55,42,30.11,30.04,18,7,18,0.00
2013-11-16,48,45,42,46,43,39,95,91,88,30.07,30.04,16,6,16,0.00
2013-11-17,65,58,46,62,52,42,97,83,67,29.80,29.35,41,13,41,0.83
2013-11-18,47,42,32,42,34,27,86,75,56,30.21,29.75,27,8,27,0.00
2013-11-19,40,33,26,30,27,24,93,81,66,30.37,30.21,14,2,14,0.00
2013-11-20,47,37,26,35,30,23,90,76,60,30.36,30.20,17,4,17,0.00
2013-11-21,51,47,42,48,42,30,97,81,61,30.28,30.17,13,3,13,0.32
2013-11-22,50,43,31,49,41,29,98,93,84,30.42,30.15,17,4,17,0.18
2013-11-23,31,26,20,29,21,14,94,82,65,30.63,30.39,20,5,21,0.00
2013-11-24,26,20,13,16,13,9,90,76,51,30.73,30.54,12,3,14,0.00
2013-11-25,32,27,18,21,16,13,80,66,53,30.55,30.19,19,6,19,0.00
2013-11-26,34,32,29,28,25,21,88,78,65,30.21,29.98,17,3,17,0.00
2013-11-27,29,24,18,25,19,14,89,81,68,30.32,30.00,17,5,17,0.02
2013-11-28,34,25,18,19,16,13,82,68,48,30.48,30.27,20,4,22,0.00
2013-11-29,37,26,14,25,20,12,94,76,58,30.67,30.48,9,1,9,0.00
2013-11-30,49,37,26,32,27,21,82,68,50,30.53,30.15,17,5,17,0.00
2013-12-1,50,41,35,38,32,25,89,70,58,30.15,29.97,12,3,12,0.00
2013-12-2,44,37,31,37,34,29,94,87,74,29.98,29.81,10,2,11,0.06
2013-12-3,50,42,34,48,41,33,97,94,89,29.86,29.77,16,4,16,0.00
2013-12-4,61,53,45,57,51,43,98,95,86,29.83,29.64,18,5,19,0.01
2013-12-5,60,38,23,56,34,22,94,86,78,30.20,29.69,19,6,22,0.00
2013-12-6,27,25,22,23,22,18,94,88,81,30.46,30.19,10,3,11,0.00
2013-12-7,24,17,9,18,12,7,92,82,67,30.67,30.46,9,2,9,0.00
2013-12-8,28,22,15,27,19,12,96,87,78,30.59,30.02,18,5,18,0.00
2013-12-9,29,24,19,28,20,13,96,85,76,30.26,29.99,19,6,19,0.00
2013-12-10,26,19,10,16,11,3,84,72,55,30.36,30.15,29,6,29,0.00
2013-12-11,26,18,7,21,13,3,89,83,75,30.57,30.34,15,3,15,0.00
2013-12-12,21,11,-2,6,1,-5,88,66,47,30.59,30.36,18,5,19,0.00
2013-12-13,32,22,0,29,16,3,95,64,57,30.36,30.16,16,4,17,0.00
2013-12-14,33,30,24,32,29,22,97,95,91,30.17,29.75,14,3,15,0.04
2013-12-15,26,20,15,24,16,9,94,84,77,30.15,29.93,24,7,24,0.00
2013-12-16,26,20,14,26,18,12,96,91,83,30.17,30.03,9,3,9,0.00
2013-12-17,27,24,19,25,22,17,96,91,83,30.16,30.03,18,6,18,0.00
2013-12-18,34,25,15,22,17,11,88,73,58,30.28,30.02,25,7,25,0.00
2013-12-19,47,42,34,42,34,22,83,73,59,30.03,29.89,21,8,21,0.05
2013-12-20,58,51,46,57,49,42,98,91,83,29.89,29.74,19,7,19,0.38
2013-12-21,54,41,37,53,40,36,97,96,91,29.83,29.50,20,4,20,2.60
2013-12-22,48,37,31,48,35,29,99,93,91,30.08,29.33,27,8,27,0.18
2013-12-23,31,26,14,29,22,9,91,85,77,30.44,30.08,19,6,19,0.00
2013-12-24,19,12,4,12,7,0,87,81,72,30.61,30.44,17,5,17,0.00
2013-12-25,28,23,16,24,17,12,87,80,72,30.51,30.19,19,6,19,0.00
2013-12-26,35,30,22,27,23,15,92,76,59,30.37,30.16,23,6,23,0.00
2013-12-27,45,36,29,34,29,23,83,74,64,30.40,30.24,21,6,23,0.00
2013-12-28,50,41,35,37,33,31,85,74,59,30.24,29.97,16,7,17,0.00
2013-12-29,43,36,26,35,30,23,95,81,68,30.08,29.79,22,6,22,0.00
2013-12-30,26,20,17,24,15,12,92,83,74,30.31,30.08,14,3,14,0.00
2013-12-31,28,22,17,21,16,12,88,78,67,30.41,30.20,21,5,21,0.00
2014-1-1,33,25,20,28,22,17,91,87,82,30.32,30.07,13,4,13,0.00
2014-1-2,22,15,3,20,12,-2,93,88,75,30.38,29.95,24,7,24,0.00